Decoded Metar for KLWT (LEWISTOWN in MT, USA) (IATA:LWT) | Meteo·Mobile Aviation Weather
aviador You're here:

KLWT Decoded Metar

LEWISTOWN in MT, USA
Report Time2019-08-24 12:54:00
UTC Time2019-08-24 13:09:28
Flight Rules vfr VFR
Wind100° at 05 kt
W.Decomp.*RWY 08: 5.0 kt HW 0.4 kt RCW
RWY 13: 3.5 kt HW 3.5 kt LCW
RWY 03: 2.9 kt HW 4.1 kt RCW
Visibility9999 m
Phenomena:N/A
Clouds:N/A
Expected CloudBase > 1,200 ft AGL from Temp-Dew spread
CeilingNone
Temp12°C (ISA +5)
Dew Point09°C (82% RH)
AAT10.0°C
QNH1012 hPa
Density Alt4,990 ft
Elevation4,167 ft
Report Wrong Elevation
Raw Report
KLWT 241254Z AUTO 10005KT 10SM CLR 12/09 A2988 RMK AO2 SLP089
T01220094 TSNO=

Extra information for KLWT:More info

Metar Taf Metar & Taf Last 4 Metars F.Rules Stats Wind Profile Meteogram Temp Stats Airport Information Weather charts Add Link Nearby VenuesMetar ALERT Operation Metar Decoded Social comments

AIRNAV info for KLWT